Time;durP1;ratioP1;P1;durP2;ratioP2;P2;SDS_P1;SDS_P2;PMS_P1;PMS_P2;Temp;Humidity;BMP_temperature;BMP_pressure;BME280_temperature;BME280_humidity;BME280_pressure;Samples;Min_cycle;Max_cycle;Signal;HPM_P1;HPM_P2
2022/12/24 00:00:37;;;;;;;;;;;18.90;42.50;;;;;;5093552;28;19934;-64
2022/12/24 00:03:04;;;;;;;;;;;18.90;42.50;;;;;;5073319;28;19927;-63
2022/12/24 00:05:30;;;;;;;;;;;18.90;43.00;;;;;;5074591;28;19978;-62
2022/12/24 00:07:58;;;;;;;;;;;18.90;42.40;;;;;;5082843;28;19923;-63
2022/12/24 00:10:25;;;;;;;;;;;18.90;42.40;;;;;;5074150;28;19924;-62
2022/12/24 00:12:52;;;;;;;;;;;18.90;42.40;;;;;;5076721;28;19927;-63
2022/12/24 00:15:19;;;;;;;;;;;18.80;42.30;;;;;;5075022;28;19927;-63
2022/12/24 00:17:46;;;;;;;;;;;18.90;42.40;;;;;;5078714;28;20366;-63
2022/12/24 00:20:13;;;;;;;;;;;18.80;42.30;;;;;;5072393;28;20336;-63
2022/12/24 00:22:39;;;;;;;;;;;18.80;42.30;;;;;;5083607;28;19920;-70
2022/12/24 00:25:08;;;;;;;;;;;18.80;42.30;;;;;;5094765;28;20315;-70
2022/12/24 00:27:35;;;;;;;;;;;18.80;42.40;;;;;;5088397;28;19927;-70
2022/12/24 00:30:01;;;;;;;;;;;18.80;42.60;;;;;;5096269;28;19973;-70
2022/12/24 00:32:28;;;;;;;;;;;18.80;43.30;;;;;;5114246;28;20303;-71
2022/12/24 00:34:55;;;;;;;;;;;18.80;42.80;;;;;;5084771;28;19993;-70
2022/12/24 00:37:22;;;;;;;;;;;18.80;42.80;;;;;;5095407;28;19920;-68
2022/12/24 00:39:49;;;;;;;;;;;18.80;42.90;;;;;;5066603;28;20293;-69
2022/12/24 00:42:17;;;;;;;;;;;18.90;43.00;;;;;;5098701;28;19920;-71
2022/12/24 00:44:43;;;;;;;;;;;18.90;43.10;;;;;;5081669;28;19928;-70
2022/12/24 00:47:10;;;;;;;;;;;18.90;43.10;;;;;;5056536;28;19985;-69
2022/12/24 00:49:37;;;;;;;;;;;18.90;43.20;;;;;;5075870;28;19924;-70
2022/12/24 00:52:04;;;;;;;;;;;18.90;43.20;;;;;;5074757;28;19952;-70
2022/12/24 00:54:31;;;;;;;;;;;18.90;43.20;;;;;;5093889;28;19923;-70
2022/12/24 00:56:58;;;;;;;;;;;18.90;43.30;;;;;;5093705;28;19973;-70
2022/12/24 00:59:26;;;;;;;;;;;18.90;43.30;;;;;;5086528;28;19920;-70
2022/12/24 01:01:53;;;;;;;;;;;18.90;43.30;;;;;;5092560;28;19951;-70
2022/12/24 01:07:04;;;;;;;;;;;18.90;43.40;;;;;;5082284;28;19944;-70
2022/12/24 01:09:31;;;;;;;;;;;18.90;43.40;;;;;;5055116;28;19920;-69
2022/12/24 01:11:58;;;;;;;;;;;18.90;43.40;;;;;;5066995;28;19935;-71
2022/12/24 01:14:26;;;;;;;;;;;18.90;43.40;;;;;;5061954;28;20479;-70
2022/12/24 01:16:53;;;;;;;;;;;18.90;43.40;;;;;;5078679;28;19970;-69
2022/12/24 01:19:19;;;;;;;;;;;18.90;43.50;;;;;;5056589;28;20005;-69
2022/12/24 01:21:46;;;;;;;;;;;19.00;43.50;;;;;;5063335;28;19920;-69
2022/12/24 01:24:13;;;;;;;;;;;19.00;43.50;;;;;;5074715;28;19928;-70
2022/12/24 01:26:40;;;;;;;;;;;19.00;43.50;;;;;;5075322;28;20586;-69
2022/12/24 01:29:07;;;;;;;;;;;19.00;43.60;;;;;;5088259;28;20365;-69
2022/12/24 01:31:35;;;;;;;;;;;19.00;43.60;;;;;;5058173;28;19932;-69
2022/12/24 01:34:02;;;;;;;;;;;19.00;43.60;;;;;;5076448;28;19939;-69
2022/12/24 01:36:29;;;;;;;;;;;19.00;43.60;;;;;;5075226;28;19970;-70
2022/12/24 01:38:55;;;;;;;;;;;19.00;43.60;;;;;;5086738;28;19921;-70
2022/12/24 01:44:22;;;;;;;;;;;19.00;43.70;;;;;;5090836;28;19927;-69
2022/12/24 01:46:51;;;;;;;;;;;19.00;43.70;;;;;;5091585;28;20294;-70
2022/12/24 01:49:18;;;;;;;;;;;19.00;43.70;;;;;;5090381;28;19965;-70
2022/12/24 01:51:46;;;;;;;;;;;19.00;43.70;;;;;;5075236;28;19921;-69
2022/12/24 01:54:13;;;;;;;;;;;19.00;43.70;;;;;;5091608;28;19924;-70
2022/12/24 01:56:40;;;;;;;;;;;19.00;43.70;;;;;;5085532;28;20360;-71
2022/12/24 01:59:08;;;;;;;;;;;19.00;43.70;;;;;;5072666;28;19946;-70
2022/12/24 02:01:35;;;;;;;;;;;19.00;43.70;;;;;;5055244;28;19924;-70
2022/12/24 02:04:03;;;;;;;;;;;19.00;43.80;;;;;;5054194;28;19920;-69
2022/12/24 02:06:30;;;;;;;;;;;19.00;43.80;;;;;;5054922;28;19920;-70
2022/12/24 02:08:56;;;;;;;;;;;19.00;43.80;;;;;;5054376;28;19921;-69
2022/12/24 02:11:23;;;;;;;;;;;19.00;43.80;;;;;;5054813;28;20309;-69
2022/12/24 02:13:50;;;;;;;;;;;19.00;43.80;;;;;;5054272;28;19977;-72
2022/12/24 02:16:21;;;;;;;;;;;19.00;43.80;;;;;;5059789;28;19955;-69
2022/12/24 02:18:49;;;;;;;;;;;19.00;43.80;;;;;;5059634;28;19920;-71
2022/12/24 02:21:27;;;;;;;;;;;19.00;43.80;;;;;;5053932;28;19943;-69
2022/12/24 02:24:09;;;;;;;;;;;19.00;43.80;;;;;;5077305;28;19920;-70
2022/12/24 02:26:42;;;;;;;;;;;19.00;43.80;;;;;;5072563;28;19924;-70
2022/12/24 02:29:21;;;;;;;;;;;19.00;43.80;;;;;;5092396;28;19920;-69
2022/12/24 02:31:50;;;;;;;;;;;19.00;43.80;;;;;;5075807;28;20384;-70
2022/12/24 02:34:18;;;;;;;;;;;19.00;43.80;;;;;;5070632;28;20400;-70
2022/12/24 02:36:46;;;;;;;;;;;19.00;43.80;;;;;;5067259;28;20515;-69
2022/12/24 02:39:14;;;;;;;;;;;19.10;43.90;;;;;;5089254;28;19920;-71
2022/12/24 02:44:22;;;;;;;;;;;19.10;43.90;;;;;;5072286;28;19927;-69
2022/12/24 02:46:51;;;;;;;;;;;19.10;44.00;;;;;;5082434;28;19970;-70
2022/12/24 02:49:17;;;;;;;;;;;19.10;44.00;;;;;;5072587;28;19966;-70
2022/12/24 02:51:44;;;;;;;;;;;19.10;44.00;;;;;;5054230;28;19921;-70
2022/12/24 02:54:11;;;;;;;;;;;19.10;44.00;;;;;;5089940;28;19924;-70
2022/12/24 02:56:47;;;;;;;;;;;19.10;44.00;;;;;;5090159;28;19936;-70
2022/12/24 02:59:19;;;;;;;;;;;19.10;44.00;;;;;;5056815;28;19928;-70
2022/12/24 03:01:47;;;;;;;;;;;19.10;44.00;;;;;;5070798;28;19925;-70
2022/12/24 03:04:17;;;;;;;;;;;19.10;44.10;;;;;;5071677;28;20018;-70
2022/12/24 03:06:46;;;;;;;;;;;19.10;44.10;;;;;;5074883;28;19970;-69
2022/12/24 03:09:14;;;;;;;;;;;19.00;44.00;;;;;;5076192;28;20016;-70
2022/12/24 03:11:41;;;;;;;;;;;19.10;44.10;;;;;;5077597;28;20308;-70
2022/12/24 03:14:08;;;;;;;;;;;19.10;44.10;;;;;;5076344;28;19920;-70
2022/12/24 03:16:35;;;;;;;;;;;19.10;44.10;;;;;;5076274;28;19965;-69
2022/12/24 03:19:02;;;;;;;;;;;19.10;44.10;;;;;;5095444;28;19924;-70
2022/12/24 03:21:31;;;;;;;;;;;19.10;44.10;;;;;;5060099;28;19920;-69
2022/12/24 03:23:58;;;;;;;;;;;19.10;44.10;;;;;;5057367;28;20024;-69
2022/12/24 03:26:24;;;;;;;;;;;19.00;44.00;;;;;;5077670;28;20200;-68
2022/12/24 03:28:51;;;;;;;;;;;19.10;44.10;;;;;;5077135;28;19920;-69
2022/12/24 03:31:18;;;;;;;;;;;19.10;44.20;;;;;;5077069;28;19973;-71
2022/12/24 03:33:45;;;;;;;;;;;19.10;44.10;;;;;;5080372;28;19920;-69
2022/12/24 03:36:12;;;;;;;;;;;19.10;44.10;;;;;;5063757;28;19928;-70
2022/12/24 03:38:41;;;;;;;;;;;19.10;44.10;;;;;;5086967;28;19920;-70
2022/12/24 03:41:08;;;;;;;;;;;19.10;44.20;;;;;;5094938;28;19920;-70
2022/12/24 03:43:34;;;;;;;;;;;19.10;44.20;;;;;;5092191;28;19923;-71
2022/12/24 03:46:03;;;;;;;;;;;19.10;44.20;;;;;;5095218;28;19935;-70
2022/12/24 03:48:30;;;;;;;;;;;19.10;44.20;;;;;;5067548;28;19928;-70
2022/12/24 03:50:57;;;;;;;;;;;19.10;44.20;;;;;;5068742;28;19947;-69
2022/12/24 03:53:24;;;;;;;;;;;19.10;44.20;;;;;;5085649;28;19989;-69
2022/12/24 03:55:52;;;;;;;;;;;19.10;44.20;;;;;;5094893;28;19931;-68
2022/12/24 03:58:18;;;;;;;;;;;19.10;44.20;;;;;;5072978;28;19932;-69
2022/12/24 04:00:45;;;;;;;;;;;19.00;44.10;;;;;;5085923;28;20350;-69
2022/12/24 04:03:12;;;;;;;;;;;19.10;44.20;;;;;;5056499;28;19920;-69
2022/12/24 04:05:38;;;;;;;;;;;19.10;44.20;;;;;;5056724;28;19978;-69
2022/12/24 04:08:05;;;;;;;;;;;19.10;44.20;;;;;;5066658;28;19946;-70
2022/12/24 04:10:32;;;;;;;;;;;19.00;44.10;;;;;;5094383;28;19920;-69
2022/12/24 04:13:00;;;;;;;;;;;19.10;44.20;;;;;;5075798;28;19920;-69
2022/12/24 04:15:27;;;;;;;;;;;19.10;44.20;;;;;;5075938;28;19924;-70
2022/12/24 04:17:54;;;;;;;;;;;19.10;44.20;;;;;;5093215;28;19920;-68
2022/12/24 04:20:21;;;;;;;;;;;19.10;44.30;;;;;;5076098;28;19920;-69
2022/12/24 04:22:47;;;;;;;;;;;19.10;44.30;;;;;;5074719;28;19923;-70
2022/12/24 04:25:14;;;;;;;;;;;19.10;44.20;;;;;;5056315;28;19920;-70
2022/12/24 04:27:41;;;;;;;;;;;19.10;44.20;;;;;;5090590;28;19955;-69
2022/12/24 04:30:10;;;;;;;;;;;19.10;44.20;;;;;;5093354;28;19959;-70
2022/12/24 04:32:37;;;;;;;;;;;19.10;44.20;;;;;;5093035;28;19967;-69
2022/12/24 04:35:04;;;;;;;;;;;19.10;44.30;;;;;;5076337;28;19951;-69
2022/12/24 04:37:30;;;;;;;;;;;19.10;44.30;;;;;;5076726;28;20435;-68
2022/12/24 04:39:57;;;;;;;;;;;19.10;44.30;;;;;;5092629;28;19977;-69
2022/12/24 04:42:24;;;;;;;;;;;19.10;44.30;;;;;;5075950;28;19920;-71
2022/12/24 04:44:50;;;;;;;;;;;19.10;44.30;;;;;;5076074;28;19920;-69
2022/12/24 04:47:19;;;;;;;;;;;19.10;44.30;;;;;;5081588;28;20320;-69
2022/12/24 04:49:46;;;;;;;;;;;19.10;44.30;;;;;;5090052;28;19934;-69
2022/12/24 04:52:12;;;;;;;;;;;19.10;44.30;;;;;;5092925;28;19974;-69
2022/12/24 04:54:39;;;;;;;;;;;19.10;44.30;;;;;;5075543;28;19924;-69
2022/12/24 04:57:06;;;;;;;;;;;19.10;44.30;;;;;;5074461;28;19927;-69
2022/12/24 04:59:33;;;;;;;;;;;19.10;44.30;;;;;;5088309;28;19927;-69
2022/12/24 05:01:59;;;;;;;;;;;19.10;44.30;;;;;;5064899;28;19920;-69
2022/12/24 05:04:28;;;;;;;;;;;19.10;44.30;;;;;;5082992;28;19928;-69
2022/12/24 05:06:55;;;;;;;;;;;19.10;44.30;;;;;;5092308;28;20412;-69
2022/12/24 05:09:21;;;;;;;;;;;19.10;44.30;;;;;;5092170;28;19973;-69
2022/12/24 05:11:48;;;;;;;;;;;19.10;44.30;;;;;;5092366;28;19993;-69
2022/12/24 05:14:15;;;;;;;;;;;19.10;44.30;;;;;;5092346;28;19927;-69
2022/12/24 05:16:42;;;;;;;;;;;19.10;44.30;;;;;;5058607;28;19924;-69
2022/12/24 05:19:09;;;;;;;;;;;19.10;44.40;;;;;;5055429;28;19935;-69
2022/12/24 05:21:37;;;;;;;;;;;19.10;44.30;;;;;;5073217;28;19950;-69
2022/12/24 05:26:48;;;;;;;;;;;19.10;44.30;;;;;;5091498;28;19924;-70
2022/12/24 05:29:15;;;;;;;;;;;19.10;44.30;;;;;;5073087;28;19956;-70
2022/12/24 05:31:42;;;;;;;;;;;19.10;44.30;;;;;;5053362;28;19920;-69
2022/12/24 05:34:09;;;;;;;;;;;19.10;44.30;;;;;;5074494;28;19924;-69
2022/12/24 05:36:37;;;;;;;;;;;19.10;44.30;;;;;;5074432;28;19966;-69
2022/12/24 05:39:04;;;;;;;;;;;19.10;44.30;;;;;;5074543;28;19920;-69
2022/12/24 05:41:31;;;;;;;;;;;19.10;44.30;;;;;;5068030;28;19920;-69
2022/12/24 05:43:57;;;;;;;;;;;19.10;44.40;;;;;;5070100;28;19973;-68
2022/12/24 05:46:24;;;;;;;;;;;19.10;44.30;;;;;;5062397;28;19944;-69
2022/12/24 05:48:51;;;;;;;;;;;19.10;44.30;;;;;;5067561;28;19969;-69
2022/12/24 05:51:18;;;;;;;;;;;19.10;44.30;;;;;;5091568;28;19974;-69
2022/12/24 05:53:47;;;;;;;;;;;19.10;44.40;;;;;;5091235;28;20015;-69
2022/12/24 05:56:14;;;;;;;;;;;19.10;44.30;;;;;;5091666;28;19920;-71
2022/12/24 05:58:41;;;;;;;;;;;19.10;44.30;;;;;;5091423;28;19920;-69
2022/12/24 06:01:08;;;;;;;;;;;19.10;44.40;;;;;;5083910;28;19924;-69
2022/12/24 06:03:35;;;;;;;;;;;19.10;44.30;;;;;;5074293;28;19950;-69
2022/12/24 06:06:02;;;;;;;;;;;19.10;44.30;;;;;;5056069;28;19970;-69
2022/12/24 06:08:29;;;;;;;;;;;19.10;44.40;;;;;;5058312;28;19924;-69
2022/12/24 06:10:58;;;;;;;;;;;19.10;44.30;;;;;;5090757;28;19920;-69
2022/12/24 06:13:24;;;;;;;;;;;19.10;44.40;;;;;;5085967;28;20015;-70
2022/12/24 06:15:51;;;;;;;;;;;19.10;44.30;;;;;;5054248;28;20038;-69
2022/12/24 06:18:18;;;;;;;;;;;19.10;44.30;;;;;;5056567;28;20401;-69
2022/12/24 06:20:45;;;;;;;;;;;19.10;44.40;;;;;;5054128;28;19920;-70
2022/12/24 06:23:12;;;;;;;;;;;19.10;44.40;;;;;;5053179;28;19920;-70
2022/12/24 06:25:39;;;;;;;;;;;19.10;44.30;;;;;;5089342;28;19928;-70
2022/12/24 06:28:07;;;;;;;;;;;19.10;44.40;;;;;;5084340;28;19928;-70
2022/12/24 06:30:34;;;;;;;;;;;19.10;44.40;;;;;;5098052;28;20289;-69
2022/12/24 06:33:00;;;;;;;;;;;19.10;44.30;;;;;;5091669;28;20513;-69
2022/12/24 06:35:28;;;;;;;;;;;19.10;44.30;;;;;;5089312;28;20316;-69
2022/12/24 06:37:54;;;;;;;;;;;19.10;44.30;;;;;;5089249;28;19923;-69
2022/12/24 06:40:21;;;;;;;;;;;19.10;44.40;;;;;;5093224;28;19924;-70
2022/12/24 06:42:48;;;;;;;;;;;19.10;44.40;;;;;;5106822;28;20373;-69
2022/12/24 06:45:16;;;;;;;;;;;19.10;44.40;;;;;;5092705;28;19920;-69
2022/12/24 06:47:43;;;;;;;;;;;19.10;44.30;;;;;;5110709;28;19992;-69
2022/12/24 06:50:10;;;;;;;;;;;19.10;44.40;;;;;;5097132;28;19928;-69
2022/12/24 06:52:36;;;;;;;;;;;19.10;44.40;;;;;;5052725;28;19978;-69
2022/12/24 06:55:03;;;;;;;;;;;19.10;44.40;;;;;;5079969;28;19920;-70
2022/12/24 06:57:31;;;;;;;;;;;19.10;44.40;;;;;;5090564;28;19920;-69
2022/12/24 06:59:58;;;;;;;;;;;19.10;44.40;;;;;;5073709;28;20353;-69
2022/12/24 07:02:27;;;;;;;;;;;19.10;44.30;;;;;;5091837;28;19967;-69
2022/12/24 07:04:53;;;;;;;;;;;19.10;44.40;;;;;;5083318;28;19924;-69
2022/12/24 07:07:20;;;;;;;;;;;19.10;44.40;;;;;;5072762;28;19920;-69
2022/12/24 07:09:47;;;;;;;;;;;19.10;44.40;;;;;;5090407;28;19928;-69
2022/12/24 07:12:14;;;;;;;;;;;19.10;44.40;;;;;;5076638;28;19926;-69
2022/12/24 07:14:40;;;;;;;;;;;19.10;44.40;;;;;;5082888;28;20430;-69
2022/12/24 07:17:07;;;;;;;;;;;19.10;44.40;;;;;;5094406;28;19932;-69
2022/12/24 07:19:35;;;;;;;;;;;19.10;44.40;;;;;;5087050;28;19931;-69
2022/12/24 07:22:02;;;;;;;;;;;19.10;44.40;;;;;;5076907;28;20422;-70
2022/12/24 07:24:29;;;;;;;;;;;19.10;44.40;;;;;;5076236;28;20346;-69
2022/12/24 07:26:56;;;;;;;;;;;19.10;44.40;;;;;;5091742;28;19951;-69
2022/12/24 07:29:22;;;;;;;;;;;19.10;44.40;;;;;;5085429;28;19920;-69
2022/12/24 07:31:49;;;;;;;;;;;19.10;44.40;;;;;;5097360;28;19977;-69
2022/12/24 07:34:16;;;;;;;;;;;19.10;44.40;;;;;;5088499;28;19920;-69
2022/12/24 07:36:44;;;;;;;;;;;19.10;44.40;;;;;;5083381;28;19931;-69
2022/12/24 07:39:11;;;;;;;;;;;19.10;44.40;;;;;;5079488;28;19981;-69
2022/12/24 07:41:38;;;;;;;;;;;19.10;44.40;;;;;;5077075;28;19924;-70
2022/12/24 07:44:05;;;;;;;;;;;19.10;44.40;;;;;;5081898;28;19920;-72
2022/12/24 07:46:32;;;;;;;;;;;19.10;44.40;;;;;;5097013;28;19965;-70
2022/12/24 07:48:59;;;;;;;;;;;19.10;44.40;;;;;;5078166;28;19969;-71
2022/12/24 07:51:26;;;;;;;;;;;19.10;44.40;;;;;;5076397;28;19924;-71
2022/12/24 07:53:54;;;;;;;;;;;19.10;44.40;;;;;;5100598;28;19919;-68
2022/12/24 07:56:21;;;;;;;;;;;19.10;44.40;;;;;;5082187;28;19920;-69
2022/12/24 07:58:48;;;;;;;;;;;19.10;44.40;;;;;;5096469;28;19927;-69
2022/12/24 08:01:14;;;;;;;;;;;19.10;44.40;;;;;;5096440;28;19920;-69
2022/12/24 08:03:41;;;;;;;;;;;19.10;44.40;;;;;;5097833;28;19965;-69
2022/12/24 08:06:08;;;;;;;;;;;19.10;44.40;;;;;;5091642;28;19993;-69
2022/12/24 08:08:34;;;;;;;;;;;19.10;44.40;;;;;;5082367;28;19932;-69
2022/12/24 08:11:03;;;;;;;;;;;19.10;44.40;;;;;;5080533;28;19969;-69
2022/12/24 08:13:30;;;;;;;;;;;19.10;44.40;;;;;;5083677;28;19924;-69
2022/12/24 08:15:56;;;;;;;;;;;19.10;44.40;;;;;;5079292;28;20354;-69
2022/12/24 08:18:23;;;;;;;;;;;19.10;44.40;;;;;;5074049;28;19950;-69
2022/12/24 08:20:50;;;;;;;;;;;19.10;45.00;;;;;;5083566;28;19924;-69
2022/12/24 08:23:17;;;;;;;;;;;19.10;44.40;;;;;;5083323;28;19920;-69
2022/12/24 08:25:43;;;;;;;;;;;19.10;44.40;;;;;;5082473;28;19926;-69
2022/12/24 08:28:12;;;;;;;;;;;19.10;44.40;;;;;;5084691;28;19943;-69
2022/12/24 08:30:38;;;;;;;;;;;19.10;44.40;;;;;;5086831;28;19928;-69
2022/12/24 08:33:05;;;;;;;;;;;19.10;44.40;;;;;;5113089;28;19965;-68
2022/12/24 08:35:32;;;;;;;;;;;19.10;44.40;;;;;;5091845;28;19927;-69
2022/12/24 08:37:58;;;;;;;;;;;19.10;44.40;;;;;;5079759;28;20419;-69
2022/12/24 08:40:26;;;;;;;;;;;19.10;44.40;;;;;;5093278;28;19924;-69
2022/12/24 08:42:52;;;;;;;;;;;19.10;44.40;;;;;;5091408;28;19920;-69
2022/12/24 08:45:21;;;;;;;;;;;19.10;44.40;;;;;;5091921;28;19920;-70
2022/12/24 08:47:47;;;;;;;;;;;19.10;44.40;;;;;;5104988;28;19923;-69
2022/12/24 08:50:14;;;;;;;;;;;19.10;44.40;;;;;;5057728;28;19920;-69
2022/12/24 08:52:41;;;;;;;;;;;19.10;44.50;;;;;;5054996;28;19966;-69
2022/12/24 08:55:08;;;;;;;;;;;19.10;43.90;;;;;;5069984;28;19920;-70
2022/12/24 08:57:35;;;;;;;;;;;19.10;44.50;;;;;;5071477;28;19967;-69
2022/12/24 09:00:02;;;;;;;;;;;19.10;44.50;;;;;;5081444;28;19920;-69
2022/12/24 09:02:30;;;;;;;;;;;19.10;44.50;;;;;;5069677;28;19920;-62
2022/12/24 09:04:57;;;;;;;;;;;19.10;44.50;;;;;;5078196;28;19920;-62
2022/12/24 09:07:24;;;;;;;;;;;19.10;44.20;;;;;;5094831;28;20362;-63
2022/12/24 09:09:50;;;;;;;;;;;19.10;44.10;;;;;;5077790;28;19924;-63
2022/12/24 09:12:17;;;;;;;;;;;19.10;43.70;;;;;;5090074;28;19947;-62
2022/12/24 09:14:44;;;;;;;;;;;19.10;43.20;;;;;;5088050;28;20326;-63
2022/12/24 09:17:11;;;;;;;;;;;19.10;43.00;;;;;;5077351;28;19928;-62
2022/12/24 09:19:39;;;;;;;;;;;19.00;42.60;;;;;;5088647;28;19924;-62
2022/12/24 09:22:06;;;;;;;;;;;19.00;42.50;;;;;;5089467;28;20390;-62
2022/12/24 09:24:34;;;;;;;;;;;18.90;42.60;;;;;;5089179;28;20872;-62
2022/12/24 09:27:01;;;;;;;;;;;18.90;42.50;;;;;;5095645;28;19959;-62
2022/12/24 09:29:28;;;;;;;;;;;18.90;42.70;;;;;;5079637;28;19919;-63
2022/12/24 09:31:56;;;;;;;;;;;18.90;42.60;;;;;;5083234;28;19932;-63
2022/12/24 09:34:23;;;;;;;;;;;18.80;42.50;;;;;;5070981;28;19956;-63
2022/12/24 09:36:53;;;;;;;;;;;18.80;42.30;;;;;;5083716;28;19928;-63
2022/12/24 09:39:19;;;;;;;;;;;18.80;42.30;;;;;;5073506;28;20018;-63
2022/12/24 09:41:47;;;;;;;;;;;18.80;42.20;;;;;;5074061;28;19927;-62
2022/12/24 09:44:20;;;;;;;;;;;18.80;42.20;;;;;;5092236;28;19921;-63
2022/12/24 09:46:47;;;;;;;;;;;18.70;42.00;;;;;;5085885;28;19989;-62
2022/12/24 09:49:14;;;;;;;;;;;18.70;42.00;;;;;;5066895;28;19920;-62
2022/12/24 09:51:42;;;;;;;;;;;18.70;41.90;;;;;;5089092;28;19932;-63
2022/12/24 09:54:11;;;;;;;;;;;18.60;41.90;;;;;;5077813;28;19927;-62
2022/12/24 09:56:38;;;;;;;;;;;18.60;41.90;;;;;;5071209;28;19920;-62
2022/12/24 09:59:05;;;;;;;;;;;18.60;42.00;;;;;;5066437;28;19924;-62
2022/12/24 10:01:33;;;;;;;;;;;18.60;42.00;;;;;;5066166;28;20001;-62
2022/12/24 10:04:00;;;;;;;;;;;18.60;42.70;;;;;;5062978;28;20355;-62
2022/12/24 10:06:28;;;;;;;;;;;18.60;42.10;;;;;;5081325;28;19925;-62
2022/12/24 10:09:02;;;;;;;;;;;18.60;42.20;;;;;;5067088;28;19920;-62
2022/12/24 10:11:32;;;;;;;;;;;18.60;42.20;;;;;;5074200;28;19932;-62
2022/12/24 10:14:02;;;;;;;;;;;18.60;42.20;;;;;;5069452;28;19927;-62
2022/12/24 10:16:32;;;;;;;;;;;18.60;42.20;;;;;;5076691;28;19970;-62
2022/12/24 10:19:00;;;;;;;;;;;18.60;42.20;;;;;;5068135;28;19920;-62
2022/12/24 10:21:29;;;;;;;;;;;18.60;42.20;;;;;;5061388;28;19928;-62
2022/12/24 10:23:58;;;;;;;;;;;18.60;42.20;;;;;;5067845;28;19926;-62
2022/12/24 10:26:25;;;;;;;;;;;18.60;42.30;;;;;;5067232;28;20315;-62
2022/12/24 10:28:55;;;;;;;;;;;18.60;42.30;;;;;;5066868;28;19981;-63
2022/12/24 10:31:23;;;;;;;;;;;18.60;42.30;;;;;;5085723;28;20215;-62
2022/12/24 10:33:50;;;;;;;;;;;18.60;42.20;;;;;;5072371;28;20243;-63
2022/12/24 10:36:18;;;;;;;;;;;18.60;42.20;;;;;;5089813;28;19983;-62
2022/12/24 10:38:45;;;;;;;;;;;18.60;42.20;;;;;;5072371;28;19973;-62
2022/12/24 10:41:11;;;;;;;;;;;18.60;42.30;;;;;;5063071;28;19993;-62
2022/12/24 10:43:38;;;;;;;;;;;18.60;42.30;;;;;;5069391;28;19973;-62
2022/12/24 10:46:08;;;;;;;;;;;18.60;42.30;;;;;;5091457;28;19928;-62
2022/12/24 10:48:36;;;;;;;;;;;18.60;42.30;;;;;;5073864;28;19924;-62
2022/12/24 10:51:03;;;;;;;;;;;18.60;42.40;;;;;;5066586;28;19936;-62
2022/12/24 10:53:36;;;;;;;;;;;18.60;42.40;;;;;;5067562;28;19966;-62
2022/12/24 10:56:04;;;;;;;;;;;18.60;42.40;;;;;;5080221;28;20007;-62
2022/12/24 10:58:31;;;;;;;;;;;18.60;42.40;;;;;;5074689;28;19973;-62
2022/12/24 11:00:57;;;;;;;;;;;18.60;42.40;;;;;;5077365;28;19936;-62
2022/12/24 11:03:28;;;;;;;;;;;18.60;42.40;;;;;;5063421;28;19920;-63
2022/12/24 11:06:02;;;;;;;;;;;18.60;42.40;;;;;;5066318;28;19920;-62
2022/12/24 11:08:29;;;;;;;;;;;18.60;42.40;;;;;;5069490;28;19970;-62
2022/12/24 11:10:57;;;;;;;;;;;18.60;42.40;;;;;;5080309;28;19928;-62
2022/12/24 11:13:25;;;;;;;;;;;18.60;42.40;;;;;;5073392;28;19921;-62
2022/12/24 11:15:52;;;;;;;;;;;18.60;42.50;;;;;;5098529;28;19924;-62
2022/12/24 11:18:19;;;;;;;;;;;18.60;42.50;;;;;;5105594;28;19920;-61
2022/12/24 11:20:49;;;;;;;;;;;18.60;42.50;;;;;;5068772;28;21219;-62
2022/12/24 11:23:16;;;;;;;;;;;18.60;42.50;;;;;;5089539;28;19926;-62
2022/12/24 11:25:46;;;;;;;;;;;18.60;42.50;;;;;;5082635;28;19923;-62
2022/12/24 11:28:13;;;;;;;;;;;18.60;42.50;;;;;;5076013;28;20300;-62
2022/12/24 11:30:40;;;;;;;;;;;18.60;42.50;;;;;;5083860;28;19924;-62
2022/12/24 11:33:19;;;;;;;;;;;18.60;42.50;;;;;;5100073;28;19970;-62
2022/12/24 11:35:46;;;;;;;;;;;18.60;42.50;;;;;;5076644;28;19940;-62
2022/12/24 11:38:17;;;;;;;;;;;18.60;42.50;;;;;;5087608;28;19928;-62
2022/12/24 11:40:45;;;;;;;;;;;18.60;42.60;;;;;;5095975;28;19965;-62
2022/12/24 11:43:14;;;;;;;;;;;18.60;42.60;;;;;;5070539;28;19936;-62
2022/12/24 11:45:40;;;;;;;;;;;18.60;42.60;;;;;;5085889;28;19924;-62
2022/12/24 11:48:22;;;;;;;;;;;18.60;42.60;;;;;;5102195;28;20311;-62
2022/12/24 11:50:50;;;;;;;;;;;18.60;42.70;;;;;;5078809;28;19959;-62
2022/12/24 11:53:19;;;;;;;;;;;18.60;42.70;;;;;;5089472;28;19942;-62
2022/12/24 11:55:47;;;;;;;;;;;18.60;42.70;;;;;;5074017;28;20437;-62
2022/12/24 11:58:18;;;;;;;;;;;18.60;42.70;;;;;;5071884;28;19973;-63
2022/12/24 12:00:45;;;;;;;;;;;18.60;42.80;;;;;;5091548;28;19932;-62
2022/12/24 12:03:15;;;;;;;;;;;18.60;42.80;;;;;;5094929;28;19920;-62
2022/12/24 12:05:41;;;;;;;;;;;18.60;42.90;;;;;;5089802;28;19932;-62
2022/12/24 12:08:10;;;;;;;;;;;18.60;42.90;;;;;;5067689;28;19920;-62
2022/12/24 12:10:39;;;;;;;;;;;18.60;42.90;;;;;;5070607;28;19924;-62
2022/12/24 12:13:07;;;;;;;;;;;18.60;42.90;;;;;;5070704;28;19925;-62
2022/12/24 12:15:34;;;;;;;;;;;18.60;43.00;;;;;;5075326;28;19928;-62
2022/12/24 12:18:03;;;;;;;;;;;18.60;43.00;;;;;;5092713;28;19954;-62
2022/12/24 12:20:30;;;;;;;;;;;18.60;43.00;;;;;;5069820;28;19958;-64
2022/12/24 12:22:58;;;;;;;;;;;18.60;43.00;;;;;;5072876;28;19920;-65
2022/12/24 12:25:26;;;;;;;;;;;18.60;43.10;;;;;;5074684;28;19926;-66
2022/12/24 12:27:55;;;;;;;;;;;18.60;43.10;;;;;;5068356;28;19970;-65
2022/12/24 12:30:23;;;;;;;;;;;18.60;43.20;;;;;;5063551;28;19932;-65
2022/12/24 12:32:51;;;;;;;;;;;18.60;43.20;;;;;;5075955;28;19924;-66
2022/12/24 12:35:21;;;;;;;;;;;18.60;43.20;;;;;;5073180;28;19928;-65
2022/12/24 12:37:48;;;;;;;;;;;18.60;43.20;;;;;;5074285;28;19924;-65
2022/12/24 12:40:15;;;;;;;;;;;18.60;43.20;;;;;;5089726;28;19942;-65
2022/12/24 12:42:44;;;;;;;;;;;18.60;43.20;;;;;;5076850;28;19920;-66
2022/12/24 12:45:29;;;;;;;;;;;18.60;43.20;;;;;;5093800;28;19959;-65
2022/12/24 12:48:00;;;;;;;;;;;18.60;43.20;;;;;;5077549;28;19920;-64
2022/12/24 12:50:29;;;;;;;;;;;18.60;43.30;;;;;;5074237;28;20014;-66
2022/12/24 12:53:10;;;;;;;;;;;18.60;43.30;;;;;;5093895;28;19920;-65
2022/12/24 12:55:40;;;;;;;;;;;18.60;43.40;;;;;;5088605;28;19920;-65
2022/12/24 12:58:10;;;;;;;;;;;18.60;43.40;;;;;;5088920;28;19970;-65
2022/12/24 13:00:38;;;;;;;;;;;18.60;43.40;;;;;;5082886;28;20359;-64
2022/12/24 13:03:11;;;;;;;;;;;18.60;43.50;;;;;;5071058;28;20312;-65
2022/12/24 13:05:43;;;;;;;;;;;18.60;43.50;;;;;;5092274;28;19920;-64
2022/12/24 13:08:17;;;;;;;;;;;18.60;43.50;;;;;;5073806;28;19973;-65
2022/12/24 13:10:55;;;;;;;;;;;18.60;43.50;;;;;;5072148;28;19931;-65
2022/12/24 13:13:28;;;;;;;;;;;18.60;43.50;;;;;;5083843;28;19928;-65
2022/12/24 13:16:03;;;;;;;;;;;18.60;43.60;;;;;;5068350;28;20259;-65
2022/12/24 13:18:34;;;;;;;;;;;18.60;43.60;;;;;;5068134;28;19927;-65
2022/12/24 13:21:01;;;;;;;;;;;18.60;43.60;;;;;;5074163;28;20629;-65
2022/12/24 13:23:28;;;;;;;;;;;18.60;43.60;;;;;;5091356;28;19920;-65
2022/12/24 13:25:55;;;;;;;;;;;18.60;43.60;;;;;;5075236;28;19920;-65
2022/12/24 13:28:31;;;;;;;;;;;18.60;43.70;;;;;;5074520;28;19924;-65
2022/12/24 13:31:13;;;;;;;;;;;18.60;43.70;;;;;;5068001;28;19919;-65
2022/12/24 13:33:49;;;;;;;;;;;18.60;43.70;;;;;;5091166;28;19950;-65
2022/12/24 13:36:16;;;;;;;;;;;18.60;43.70;;;;;;5066695;28;19920;-65
2022/12/24 13:38:43;;;;;;;;;;;18.60;43.80;;;;;;5079262;28;19920;-65
2022/12/24 13:41:29;;;;;;;;;;;18.60;43.80;;;;;;5092799;28;20005;-66
2022/12/24 13:44:02;;;;;;;;;;;18.60;43.80;;;;;;5083006;28;19966;-65
2022/12/24 13:46:43;;;;;;;;;;;18.60;43.80;;;;;;5087329;28;19946;-65
2022/12/24 13:49:12;;;;;;;;;;;18.60;43.80;;;;;;5069543;28;19924;-65
2022/12/24 13:51:39;;;;;;;;;;;18.60;43.80;;;;;;5074653;28;19982;-65
2022/12/24 13:54:09;;;;;;;;;;;18.60;43.80;;;;;;5080678;28;19931;-64
2022/12/24 13:56:36;;;;;;;;;;;18.60;43.80;;;;;;5057996;28;19932;-63
2022/12/24 13:59:10;;;;;;;;;;;18.60;43.80;;;;;;5071604;28;19932;-63
2022/12/24 14:01:37;;;;;;;;;;;18.60;43.90;;;;;;5082690;28;19926;-63
2022/12/24 14:04:03;;;;;;;;;;;18.60;44.10;;;;;;5078853;28;19920;-63
2022/12/24 14:06:32;;;;;;;;;;;18.60;44.10;;;;;;5074849;28;19924;-63
2022/12/24 14:09:05;;;;;;;;;;;18.50;44.10;;;;;;5087320;28;19920;-63
2022/12/24 14:11:33;;;;;;;;;;;18.50;44.10;;;;;;5072074;28;19924;-64
2022/12/24 14:14:09;;;;;;;;;;;18.50;44.10;;;;;;5090598;28;19924;-64
2022/12/24 14:16:47;;;;;;;;;;;18.50;44.10;;;;;;5063663;28;19920;-63
2022/12/24 14:19:15;;;;;;;;;;;18.50;44.10;;;;;;5072262;28;19923;-63
2022/12/24 14:21:45;;;;;;;;;;;18.50;44.10;;;;;;5073484;28;20359;-64
2022/12/24 14:24:13;;;;;;;;;;;18.50;44.20;;;;;;5091799;28;19926;-64
2022/12/24 14:26:43;;;;;;;;;;;18.50;44.20;;;;;;5072953;28;19973;-64
2022/12/24 14:29:14;;;;;;;;;;;18.50;44.10;;;;;;5071295;28;19959;-64
2022/12/24 14:31:49;;;;;;;;;;;18.50;44.20;;;;;;5090991;28;19932;-64